createdAt,value
2019-03-26T00:00:08.385Z,100408.97
2019-03-26T00:02:41.473Z,100415.17
2019-03-26T00:05:13.131Z,100419.47
2019-03-26T00:07:44.584Z,100417.69
2019-03-26T00:10:16.247Z,100410.05
2019-03-26T00:13:42.958Z,100411.36
2019-03-26T00:16:23.215Z,100424.83
2019-03-26T00:18:54.866Z,100414.35
2019-03-26T00:21:26.533Z,100419.95
2019-03-26T00:23:58.332Z,100413.49
2019-03-26T00:26:29.951Z,100411.97
2019-03-26T00:29:01.703Z,100411.11
2019-03-26T00:31:33.062Z,100402.78
2019-03-26T00:34:18.345Z,100399.68
2019-03-26T00:36:38.012Z,100394.20
2019-03-26T00:39:09.722Z,100400.62
2019-03-26T00:41:41.433Z,100391.79
2019-03-26T00:44:12.980Z,100390.49
2019-03-26T00:46:44.846Z,100392.17
2019-03-26T00:49:16.603Z,100390.25
2019-03-26T00:51:48.157Z,100403.62
2019-03-26T00:54:19.924Z,100404.22
2019-03-26T00:56:51.373Z,100416.84
2019-03-26T00:59:23.338Z,100416.59
2019-03-26T01:01:54.898Z,100425.06
2019-03-26T01:04:32.617Z,100423.05
2019-03-26T01:06:59.741Z,100415.30
2019-03-26T01:09:31.297Z,100419.95
2019-03-26T01:12:03.059Z,100415.88
2019-03-26T01:14:34.919Z,100420.05
2019-03-26T01:17:06.480Z,100426.98
2019-03-26T01:19:38.238Z,100421.72
2019-03-26T01:22:09.707Z,100426.61
2019-03-26T01:24:41.848Z,100420.17
2019-03-26T01:27:13.504Z,100420.17
2019-03-26T01:29:45.267Z,100422.58
2019-03-26T01:32:17.228Z,100426.14
2019-03-26T01:34:48.991Z,100411.73
2019-03-26T01:37:20.554Z,100414.45
2019-03-26T01:39:52.309Z,100409.44
2019-03-26T01:42:24.065Z,100415.64
2019-03-26T01:44:55.524Z,100421.95
2019-03-26T01:47:57.757Z,100416.95
2019-03-26T01:50:30.138Z,100418.62
2019-03-26T01:53:01.697Z,100422.44
2019-03-26T01:55:33.365Z,100432.23
2019-03-26T01:58:05.108Z,100444.84
2019-03-26T02:00:36.819Z,100449.03
2019-03-26T02:03:08.430Z,100454.05
2019-03-26T02:05:40.202Z,100445.34
2019-03-26T02:08:11.760Z,100454.73
2019-03-26T02:10:43.311Z,100455.58
2019-03-26T02:13:14.955Z,100457.49
2019-03-26T02:15:46.730Z,100459.14
2019-03-26T02:18:18.491Z,100468.33
2019-03-26T02:20:50.042Z,100470.61
2019-03-26T02:23:21.905Z,100463.92
2019-03-26T02:25:53.293Z,100466.08
2019-03-26T02:28:24.914Z,100466.66
2019-03-26T02:30:56.383Z,100461.05
2019-03-26T02:33:28.145Z,100470.01
2019-03-26T02:35:59.991Z,100468.20
2019-03-26T02:38:31.601Z,100481.44
2019-03-26T02:41:03.213Z,100486.09
2019-03-26T02:43:34.767Z,100486.55
2019-03-26T02:46:07.246Z,100488.71
2019-03-26T02:48:38.882Z,100485.84
2019-03-26T02:51:10.540Z,100485.38
2019-03-26T02:53:42.321Z,100490.95
2019-03-26T02:56:15.085Z,100491.08
2019-03-26T02:58:46.753Z,100493.58
2019-03-26T03:01:18.402Z,100494.30
2019-03-26T03:03:50.057Z,100497.17
2019-03-26T03:06:21.717Z,100498.48
2019-03-26T03:08:53.372Z,100503.64
2019-03-26T03:11:25.154Z,100506.48
2019-03-26T03:13:56.911Z,100501.36
2019-03-26T03:16:28.380Z,100496.58
2019-03-26T03:19:00.019Z,100499.33
2019-03-26T03:21:31.585Z,100498.86
2019-03-26T03:24:03.369Z,100502.20
2019-03-26T03:26:35.103Z,100508.37
2019-03-26T03:29:06.853Z,100509.19
2019-03-26T03:31:38.562Z,100508.37
2019-03-26T03:34:10.087Z,100511.34
2019-03-26T03:36:41.731Z,100512.56
2019-03-26T03:39:13.583Z,100505.41
2019-03-26T03:41:45.246Z,100503.60
2019-03-26T03:44:16.627Z,100509.09
2019-03-26T03:46:48.353Z,100507.66
2019-03-26T03:49:21.436Z,100517.05
2019-03-26T03:51:53.054Z,100520.98
2019-03-26T03:54:24.767Z,100523.48
2019-03-26T03:56:57.032Z,100520.52
2019-03-26T03:59:28.808Z,100523.98
2019-03-26T04:02:00.444Z,100522.80
2019-03-26T04:04:32.101Z,100524.58
2019-03-26T04:07:03.666Z,100521.48
2019-03-26T04:09:35.324Z,100526.14
2019-03-26T04:12:07.082Z,100527.55
2019-03-26T04:14:38.840Z,100530.54
2019-03-26T04:17:10.321Z,100527.80
2019-03-26T04:19:42.061Z,100517.44
2019-03-26T04:22:13.611Z,100518.41
2019-03-26T04:24:45.309Z,100522.93
2019-03-26T04:27:17.028Z,100522.00
2019-03-26T04:29:48.787Z,100524.62
2019-03-26T04:32:20.342Z,100526.09
2019-03-26T04:34:51.995Z,100539.80
2019-03-26T04:37:23.657Z,100544.55
2019-03-26T04:39:55.322Z,100548.61
2019-03-26T04:42:27.413Z,100558.04
2019-03-26T04:44:58.929Z,100564.25
2019-03-26T04:47:30.596Z,100561.63
2019-03-26T04:50:02.252Z,100562.09
2019-03-26T04:52:34.226Z,100560.45
2019-03-26T04:55:06.037Z,100566.78
2019-03-26T04:57:37.358Z,100570.09
2019-03-26T05:00:09.092Z,100574.66
2019-03-26T05:02:40.964Z,100573.81
2019-03-26T05:05:12.687Z,100572.03
2019-03-26T05:07:44.102Z,100570.84
2019-03-26T05:10:15.720Z,100573.59
2019-03-26T05:12:47.284Z,100568.48
2019-03-26T05:15:18.839Z,100560.34
2019-03-26T05:17:50.595Z,100558.08
2019-03-26T05:20:22.150Z,100557.48
2019-03-26T05:22:54.112Z,100550.34
2019-03-26T05:25:25.571Z,100552.59
2019-03-26T05:27:58.705Z,100552.58
2019-03-26T05:30:33.008Z,100560.22
2019-03-26T05:33:03.609Z,100568.33
2019-03-26T05:35:35.065Z,100557.57
2019-03-26T05:38:06.721Z,100563.09
2019-03-26T05:40:39.508Z,100573.47
2019-03-26T05:43:11.166Z,100583.48
2019-03-26T05:46:31.550Z,100577.29
2019-03-26T05:49:03.124Z,100571.06
2019-03-26T05:51:35.668Z,100586.00
2019-03-26T05:54:07.021Z,100587.86
2019-03-26T05:56:38.408Z,100589.52
2019-03-26T05:59:10.029Z,100590.33
2019-03-26T06:01:42.565Z,100598.67
2019-03-26T06:04:14.370Z,100591.56
2019-03-26T06:06:45.954Z,100600.16
2019-03-26T06:09:17.476Z,100600.38
2019-03-26T06:11:49.139Z,100602.30
2019-03-26T06:14:20.896Z,100605.98
2019-03-26T06:16:52.654Z,100600.97
2019-03-26T06:19:24.207Z,100596.11
2019-03-26T06:21:55.763Z,100592.30
2019-03-26T06:24:27.631Z,100594.61
2019-03-26T06:26:59.496Z,100595.95
2019-03-26T06:29:31.968Z,100601.45
2019-03-26T06:32:03.510Z,100603.42
2019-03-26T06:34:35.183Z,100612.16
2019-03-26T06:37:17.392Z,100611.96
2019-03-26T06:39:39.933Z,100613.02
2019-03-26T06:42:11.381Z,100614.06
2019-03-26T06:44:43.131Z,100620.51
2019-03-26T06:47:14.903Z,100624.97
2019-03-26T06:49:46.454Z,100627.72
2019-03-26T06:52:17.935Z,100632.27
2019-03-26T06:54:51.687Z,100628.42
2019-03-26T06:57:35.055Z,100635.06
2019-03-26T06:59:55.965Z,100653.52
2019-03-26T07:02:27.712Z,100657.46
2019-03-26T07:04:59.273Z,100658.02
2019-03-26T07:07:32.060Z,100663.89
2019-03-26T07:10:07.193Z,100664.78
2019-03-26T07:12:38.643Z,100670.97
2019-03-26T07:15:10.202Z,100674.09
2019-03-26T07:17:41.657Z,100669.38
2019-03-26T07:20:13.205Z,100667.91
2019-03-26T07:22:44.799Z,100659.58
2019-03-26T07:25:17.342Z,100668.78
2019-03-26T07:27:48.781Z,100668.80
2019-03-26T07:30:23.570Z,100661.72
2019-03-26T07:32:55.386Z,100667.75
2019-03-26T07:35:27.043Z,100665.63
2019-03-26T07:37:58.701Z,100666.56
2019-03-26T07:40:30.474Z,100668.13
2019-03-26T07:43:02.231Z,100668.36
2019-03-26T07:45:34.083Z,100659.41
2019-03-26T07:48:05.848Z,100664.28
2019-03-26T07:50:37.504Z,100663.30
2019-03-26T07:53:09.261Z,100664.25
2019-03-26T07:55:43.720Z,100661.77
2019-03-26T07:58:14.321Z,100661.92
2019-03-26T08:00:45.800Z,100659.75
2019-03-26T08:03:17.315Z,100662.06
2019-03-26T08:05:48.666Z,100656.28
2019-03-26T08:08:19.980Z,100657.45
2019-03-26T08:10:51.299Z,100663.14
2019-03-26T08:13:22.652Z,100666.05
2019-03-26T08:15:53.953Z,100668.98
2019-03-26T08:18:25.535Z,100670.53
2019-03-26T08:20:57.654Z,100677.95
2019-03-26T08:23:29.189Z,100676.58
2019-03-26T08:26:00.814Z,100678.67
2019-03-26T08:28:32.515Z,100686.64
2019-03-26T08:31:04.129Z,100676.88
2019-03-26T08:33:35.901Z,100688.80
2019-03-26T08:36:07.653Z,100688.55
2019-03-26T08:38:39.206Z,100683.11
2019-03-26T08:41:10.976Z,100685.06
2019-03-26T08:43:42.524Z,100686.64
2019-03-26T08:46:14.171Z,100690.09
2019-03-26T08:48:45.881Z,100696.99
2019-03-26T08:51:17.598Z,100696.99
2019-03-26T08:53:49.465Z,100700.64
2019-03-26T08:56:21.018Z,100704.56
2019-03-26T08:58:52.674Z,100705.96
2019-03-26T09:01:24.538Z,100700.90
2019-03-26T09:03:56.346Z,100705.34
2019-03-26T09:06:28.776Z,100705.36
2019-03-26T09:09:00.535Z,100702.63
2019-03-26T09:11:32.904Z,100698.13
2019-03-26T09:14:05.699Z,100702.70
2019-03-26T09:16:37.454Z,100701.34
2019-03-26T09:19:09.216Z,100710.76
2019-03-26T09:21:40.726Z,100696.98
2019-03-26T09:24:12.425Z,100698.44
2019-03-26T09:26:44.005Z,100701.89
2019-03-26T09:29:15.640Z,100702.55
2019-03-26T09:31:47.301Z,100701.50
2019-03-26T09:34:18.871Z,100697.70
2019-03-26T09:36:50.641Z,100698.70
2019-03-26T09:39:22.372Z,100702.45
2019-03-26T09:41:53.784Z,100707.30
2019-03-26T09:44:25.484Z,100702.07
2019-03-26T09:46:57.244Z,100700.13
2019-03-26T09:49:29.010Z,100707.34
2019-03-26T09:52:00.804Z,100699.94
2019-03-26T09:54:32.431Z,100699.49
2019-03-26T09:57:03.995Z,100694.95
2019-03-26T09:59:35.747Z,100694.14
2019-03-26T10:02:07.391Z,100685.52
2019-03-26T10:04:39.160Z,100683.19
2019-03-26T10:07:20.872Z,100691.01
2019-03-26T10:09:43.804Z,100688.20
2019-03-26T10:12:15.461Z,100683.80
2019-03-26T10:14:47.120Z,100676.56
2019-03-26T10:17:18.884Z,100676.52
2019-03-26T10:19:50.437Z,100675.92
2019-03-26T10:22:22.091Z,100678.46
2019-03-26T10:24:53.749Z,100669.39
2019-03-26T10:27:25.472Z,100677.78
2019-03-26T10:29:57.197Z,100667.03
2019-03-26T10:32:28.822Z,100669.70
2019-03-26T10:35:00.363Z,100673.57
2019-03-26T10:37:32.144Z,100665.34
2019-03-26T10:40:04.634Z,100660.37
2019-03-26T10:42:36.075Z,100664.55
2019-03-26T10:45:07.746Z,100664.73
2019-03-26T10:47:39.390Z,100653.64
2019-03-26T10:50:10.852Z,100650.82
2019-03-26T10:52:45.257Z,100656.11
2019-03-26T10:55:16.814Z,100653.83
2019-03-26T10:57:48.615Z,100652.95
2019-03-26T11:00:20.758Z,100652.23
2019-03-26T11:02:54.112Z,100653.99
2019-03-26T11:05:25.258Z,100659.25
2019-03-26T11:07:57.052Z,100659.94
2019-03-26T11:10:28.706Z,100665.75
2019-03-26T11:13:00.367Z,100655.68
2019-03-26T11:15:32.123Z,100659.73
2019-03-26T11:18:03.790Z,100664.20
2019-03-26T11:20:35.355Z,100658.91
2019-03-26T11:23:06.996Z,100666.31
2019-03-26T11:25:38.659Z,100658.51
2019-03-26T11:28:10.215Z,100658.55
2019-03-26T11:30:41.679Z,100663.47
2019-03-26T11:33:13.531Z,100657.49
2019-03-26T11:35:44.979Z,100655.00
2019-03-26T11:38:18.516Z,100650.63
2019-03-26T11:40:49.855Z,100652.81
2019-03-26T11:43:22.191Z,100656.02
2019-03-26T11:45:53.866Z,100656.70
2019-03-26T11:48:25.418Z,100651.52
2019-03-26T11:50:56.974Z,100651.03
2019-03-26T11:53:28.732Z,100649.73
2019-03-26T11:56:00.058Z,100649.05
2019-03-26T11:58:31.840Z,100646.48
2019-03-26T12:01:03.653Z,100641.55
2019-03-26T12:03:35.056Z,100638.04
2019-03-26T12:06:06.851Z,100636.34
2019-03-26T12:08:38.679Z,100635.22
2019-03-26T12:11:10.341Z,100639.13
2019-03-26T12:13:42.190Z,100635.09
2019-03-26T12:16:14.556Z,100620.02
2019-03-26T12:18:46.234Z,100622.53
2019-03-26T12:21:17.994Z,100617.13
2019-03-26T12:23:49.856Z,100620.66
2019-03-26T12:26:21.408Z,100615.06
2019-03-26T12:28:53.110Z,100610.90
2019-03-26T12:31:24.731Z,100612.58
2019-03-26T12:33:56.317Z,100613.19
2019-03-26T12:36:39.352Z,100622.84
2019-03-26T12:39:00.928Z,100615.75
2019-03-26T12:41:34.334Z,100621.55
2019-03-26T12:44:05.982Z,100614.22
2019-03-26T12:46:38.869Z,100616.20
2019-03-26T12:49:10.432Z,100620.41
2019-03-26T12:51:42.183Z,100619.58
2019-03-26T12:54:13.745Z,100622.80
2019-03-26T12:56:45.503Z,100622.02
2019-03-26T12:59:18.178Z,100619.58
2019-03-26T13:01:50.042Z,100615.70
2019-03-26T13:04:21.499Z,100623.18
2019-03-26T13:06:53.262Z,100619.80
2019-03-26T13:09:24.924Z,100622.01
2019-03-26T13:11:56.578Z,100623.53
2019-03-26T13:14:33.963Z,100619.73
2019-03-26T13:17:05.214Z,100612.55
2019-03-26T13:19:36.283Z,100622.03
2019-03-26T13:22:07.709Z,100620.71
2019-03-26T13:24:39.364Z,100618.67
2019-03-26T13:27:10.423Z,100622.36
2019-03-26T13:29:41.860Z,100619.50
2019-03-26T13:32:13.326Z,100619.84
2019-03-26T13:34:44.681Z,100620.14
2019-03-26T13:37:16.116Z,100612.23
2019-03-26T13:39:47.575Z,100618.59
2019-03-26T13:42:18.922Z,100612.00
2019-03-26T13:44:50.168Z,100607.83
2019-03-26T13:47:22.650Z,100613.45
2019-03-26T13:49:53.901Z,100614.70
2019-03-26T13:52:25.135Z,100616.17
2019-03-26T13:54:57.520Z,100604.94
2019-03-26T13:57:28.972Z,100611.48
2019-03-26T14:00:00.396Z,100609.91
2019-03-26T14:02:31.881Z,100603.62
2019-03-26T14:05:04.155Z,100611.28
2019-03-26T14:07:35.293Z,100612.00
2019-03-26T14:10:06.643Z,100609.52
2019-03-26T14:12:38.101Z,100607.30
2019-03-26T14:15:10.398Z,100604.62
2019-03-26T14:17:41.823Z,100605.50
2019-03-26T14:20:13.385Z,100605.26
2019-03-26T14:22:44.528Z,100620.25
2019-03-26T14:25:15.778Z,100614.11
2019-03-26T14:27:47.135Z,100613.66
2019-03-26T14:30:27.519Z,100606.49
2019-03-26T14:32:59.020Z,100609.44
2019-03-26T14:35:30.288Z,100612.47
2019-03-26T14:38:01.740Z,100616.23
2019-03-26T14:40:33.100Z,100621.18
2019-03-26T14:43:04.359Z,100622.70
2019-03-26T14:45:36.014Z,100617.64
2019-03-26T14:48:08.578Z,100616.94
2019-03-26T14:50:40.137Z,100624.46
2019-03-26T14:53:11.378Z,100619.17
2019-03-26T14:55:42.730Z,100618.03
2019-03-26T14:58:14.078Z,100625.67
2019-03-26T15:00:45.534Z,100627.48
2019-03-26T15:03:16.990Z,100628.48
2019-03-26T15:05:48.437Z,100627.41
2019-03-26T15:08:19.897Z,100630.27
2019-03-26T15:10:51.345Z,100629.87
2019-03-26T15:13:22.512Z,100630.78
2019-03-26T15:15:53.843Z,100630.23
2019-03-26T15:18:25.501Z,100631.29
2019-03-26T15:20:56.782Z,100626.78
2019-03-26T15:23:28.103Z,100626.09
2019-03-26T15:25:59.451Z,100635.28
2019-03-26T15:28:30.833Z,100635.91
2019-03-26T15:31:02.318Z,100638.66
2019-03-26T15:33:34.047Z,100637.34
2019-03-26T15:36:05.092Z,100634.70
2019-03-26T15:38:36.409Z,100640.97
2019-03-26T15:41:20.992Z,100672.53
2019-03-26T15:43:42.183Z,100677.68
2019-03-26T15:46:13.440Z,100676.92
2019-03-26T15:48:44.984Z,100679.95
2019-03-26T15:51:16.443Z,100680.63
2019-03-26T15:53:47.892Z,100688.13
2019-03-26T15:56:19.245Z,100691.44
2019-03-26T15:58:50.693Z,100685.68
2019-03-26T16:01:24.355Z,100687.91
2019-03-26T16:03:55.240Z,100696.02
2019-03-26T16:06:26.474Z,100700.91
2019-03-26T16:08:57.940Z,100699.88
2019-03-26T16:11:35.679Z,100705.66
2019-03-26T16:14:02.089Z,100713.48
2019-03-26T16:16:33.429Z,100715.31
2019-03-26T16:19:04.882Z,100721.93
2019-03-26T16:21:36.267Z,100717.08
2019-03-26T16:24:07.682Z,100726.30
2019-03-26T16:26:39.137Z,100728.34
2019-03-26T16:29:10.566Z,100736.14
2019-03-26T16:31:42.044Z,100728.75
2019-03-26T16:34:13.499Z,100739.62
2019-03-26T16:36:58.816Z,100745.02
2019-03-26T16:39:19.368Z,100746.98
2019-03-26T16:41:50.937Z,100747.23
2019-03-26T16:44:22.698Z,100752.75
2019-03-26T16:46:54.252Z,100760.30
2019-03-26T16:49:26.007Z,100759.09
2019-03-26T16:51:57.466Z,100769.50
2019-03-26T16:54:29.016Z,100774.02
2019-03-26T16:57:00.387Z,100773.05
2019-03-26T16:59:31.920Z,100766.61
2019-03-26T17:02:03.373Z,100770.92
2019-03-26T17:04:34.862Z,100766.74
2019-03-26T17:07:06.381Z,100766.74
2019-03-26T17:09:37.939Z,100773.53
2019-03-26T17:12:09.084Z,100782.61
2019-03-26T17:14:40.436Z,100784.52
2019-03-26T17:17:11.524Z,100788.11
2019-03-26T17:19:43.045Z,100786.20
2019-03-26T17:22:14.486Z,100791.80
2019-03-26T17:24:45.734Z,100795.88
2019-03-26T17:27:17.290Z,100793.59
2019-03-26T17:29:48.639Z,100798.12
2019-03-26T17:32:19.994Z,100795.37
2019-03-26T17:34:51.249Z,100796.81
2019-03-26T17:37:22.689Z,100802.91
2019-03-26T17:39:53.837Z,100805.03
2019-03-26T17:42:25.091Z,100803.63
2019-03-26T17:44:58.383Z,100820.33
2019-03-26T17:47:29.742Z,100817.45
2019-03-26T17:50:01.087Z,100817.45
2019-03-26T17:52:32.538Z,100813.16
2019-03-26T17:55:04.832Z,100817.45
2019-03-26T17:57:36.270Z,100827.36
2019-03-26T18:00:12.730Z,100819.34
2019-03-26T18:02:43.977Z,100817.83
2019-03-26T18:05:21.368Z,100815.80
2019-03-26T18:07:52.721Z,100821.14
2019-03-26T18:10:23.972Z,100817.45
2019-03-26T18:12:55.320Z,100815.54
2019-03-26T18:15:26.484Z,100818.51
2019-03-26T18:17:57.917Z,100816.94
2019-03-26T18:20:32.787Z,100816.59
2019-03-26T18:23:02.463Z,100817.52
2019-03-26T18:25:34.118Z,100821.72
2019-03-26T18:28:05.466Z,100821.13
2019-03-26T18:30:36.851Z,100822.98
2019-03-26T18:33:08.282Z,100821.15
2019-03-26T18:35:39.529Z,100825.45
2019-03-26T18:38:11.076Z,100822.83
2019-03-26T18:40:42.346Z,100815.81
2019-03-26T18:43:14.900Z,100815.30
2019-03-26T18:45:46.266Z,100810.16
2019-03-26T18:48:17.604Z,100821.21
2019-03-26T18:50:48.855Z,100827.42
2019-03-26T18:53:20.408Z,100832.08
2019-03-26T18:55:51.661Z,100827.64
2019-03-26T18:58:23.210Z,100828.47
2019-03-26T19:00:54.766Z,100828.91
2019-03-26T19:03:26.034Z,100821.72
2019-03-26T19:05:57.468Z,100820.64
2019-03-26T19:08:29.040Z,100822.66
2019-03-26T19:11:00.588Z,100822.61
2019-03-26T19:13:32.044Z,100826.68
2019-03-26T19:16:03.185Z,100822.84
2019-03-26T19:18:34.643Z,100823.91
2019-03-26T19:21:06.078Z,100829.75
2019-03-26T19:23:37.745Z,100824.88
2019-03-26T19:26:09.007Z,100824.63
2019-03-26T19:28:40.267Z,100821.62
2019-03-26T19:31:11.806Z,100824.59
2019-03-26T19:33:43.160Z,100819.95
2019-03-26T19:36:14.605Z,100818.62
2019-03-26T19:38:46.882Z,100818.95
2019-03-26T19:41:18.330Z,100820.37
2019-03-26T19:43:49.983Z,100816.91
2019-03-26T19:46:22.673Z,100823.41
2019-03-26T19:48:54.105Z,100821.74
2019-03-26T19:51:25.677Z,100814.20
2019-03-26T19:53:56.923Z,100822.67
2019-03-26T19:56:28.480Z,100821.74
2019-03-26T19:58:59.940Z,100827.84
2019-03-26T20:01:31.181Z,100831.70
2019-03-26T20:04:02.839Z,100830.92
2019-03-26T20:06:34.381Z,100826.34
2019-03-26T20:09:07.179Z,100829.03
2019-03-26T20:11:38.426Z,100831.55
2019-03-26T20:14:09.678Z,100826.19
2019-03-26T20:16:42.287Z,100833.44
2019-03-26T20:19:13.600Z,100829.67
2019-03-26T20:21:45.172Z,100832.67
2019-03-26T20:24:16.624Z,100824.58
2019-03-26T20:26:47.965Z,100823.66
2019-03-26T20:29:19.314Z,100824.81
2019-03-26T20:31:50.496Z,100836.92
2019-03-26T20:34:23.452Z,100830.21
2019-03-26T20:36:54.542Z,100830.52
2019-03-26T20:39:26.966Z,100831.79
2019-03-26T20:41:58.318Z,100832.48
2019-03-26T20:44:29.878Z,100834.91
2019-03-26T20:47:01.340Z,100838.56
2019-03-26T20:49:32.771Z,100844.57
2019-03-26T20:52:04.334Z,100845.61
2019-03-26T20:54:35.995Z,100846.34
2019-03-26T20:57:07.445Z,100847.61
2019-03-26T20:59:38.899Z,100851.53
2019-03-26T21:02:10.358Z,100854.70
2019-03-26T21:04:41.914Z,100853.99
2019-03-26T21:07:13.257Z,100857.19
2019-03-26T21:09:44.627Z,100857.37
2019-03-26T21:12:16.070Z,100860.48
2019-03-26T21:14:47.412Z,100863.34
2019-03-26T21:17:18.970Z,100862.31
2019-03-26T21:19:50.161Z,100860.48
2019-03-26T21:22:21.566Z,100861.06
2019-03-26T21:24:52.817Z,100854.75
2019-03-26T21:27:24.165Z,100861.58
2019-03-26T21:29:55.722Z,100864.47
2019-03-26T21:32:27.074Z,100863.30
2019-03-26T21:34:58.530Z,100869.38
2019-03-26T21:37:29.983Z,100871.31
2019-03-26T21:40:01.332Z,100867.61
2019-03-26T21:42:34.114Z,100867.22
2019-03-26T21:45:09.255Z,100869.84
2019-03-26T21:47:40.361Z,100870.63
2019-03-26T21:50:12.618Z,100862.78
2019-03-26T21:52:44.022Z,100865.20
2019-03-26T21:55:15.363Z,100868.31
2019-03-26T21:57:46.830Z,100868.03
2019-03-26T22:00:18.176Z,100876.30
2019-03-26T22:02:49.720Z,100867.30
2019-03-26T22:05:21.079Z,100863.64
2019-03-26T22:07:54.773Z,100868.50
2019-03-26T22:10:26.347Z,100873.23
2019-03-26T22:12:57.903Z,100867.15
2019-03-26T22:15:29.165Z,100871.20
2019-03-26T22:18:00.603Z,100870.95
2019-03-26T22:20:33.067Z,100875.64
2019-03-26T22:23:04.679Z,100876.98
2019-03-26T22:25:35.982Z,100886.36
2019-03-26T22:28:07.226Z,100881.13
2019-03-26T22:30:38.684Z,100880.31
2019-03-26T22:33:09.865Z,100879.64
2019-03-26T22:35:41.188Z,100881.91
2019-03-26T22:38:12.525Z,100873.88
2019-03-26T22:40:44.085Z,100879.20
2019-03-26T22:43:15.304Z,100875.28
2019-03-26T22:45:46.788Z,100871.48
2019-03-26T22:48:18.227Z,100875.29
2019-03-26T22:50:49.579Z,100873.45
2019-03-26T22:53:21.152Z,100875.48
2019-03-26T22:55:52.504Z,100870.17
2019-03-26T22:58:23.676Z,100872.97
2019-03-26T23:00:55.305Z,100866.23
2019-03-26T23:03:26.763Z,100868.84
2019-03-26T23:05:58.110Z,100870.81
2019-03-26T23:08:29.654Z,100871.37
2019-03-26T23:11:01.124Z,100870.33
2019-03-26T23:13:32.467Z,100866.78
2019-03-26T23:16:04.029Z,100873.18
2019-03-26T23:18:35.362Z,100871.42
2019-03-26T23:21:06.725Z,100877.39
2019-03-26T23:23:38.075Z,100872.34
2019-03-26T23:26:09.324Z,100872.34
2019-03-26T23:28:40.775Z,100874.72
2019-03-26T23:31:12.339Z,100869.40
2019-03-26T23:33:43.886Z,100864.24
2019-03-26T23:36:15.236Z,100862.19
2019-03-26T23:38:46.484Z,100854.61
2019-03-26T23:41:17.938Z,100852.84
2019-03-26T23:43:49.292Z,100856.72
2019-03-26T23:46:20.538Z,100856.72
2019-03-26T23:48:51.792Z,100858.94
2019-03-26T23:51:23.125Z,100859.12
2019-03-26T23:53:56.230Z,100854.72
2019-03-26T23:56:27.578Z,100858.33
2019-03-26T23:58:59.028Z,100856.66
